Time;durP1;ratioP1;P1;durP2;ratioP2;P2;SDS_P1;SDS_P2;PMS_P1;PMS_P2;Temp;Humidity;BMP_temperature;BMP_pressure;BME280_temperature;BME280_humidity;BME280_pressure;Samples;Min_cycle;Max_cycle;Signal;HPM_P1;HPM_P2
2021/09/22 10:24:58;;;;;;;7.95;4.00;;;;;;;16.19;73.11;96666.66;5079071;27;20405;-62
2021/09/22 10:27:24;;;;;;;5.05;3.45;;;;;;;16.41;72.30;96659.19;5080600;28;20035;-61
2021/09/22 10:30:07;;;;;;;3.55;3.35;;;;;;;16.73;70.54;96655.91;5084789;28;20032;-62
2021/09/22 10:32:43;;;;;;;4.30;3.90;;;;;;;16.94;69.29;96651.22;5081730;28;20099;-62
2021/09/22 10:35:26;;;;;;;3.58;3.30;;;;;;;17.12;69.50;96645.84;5073417;28;20563;-61
2021/09/22 10:38:15;;;;;;;4.07;3.67;;;;;;;17.23;70.10;96642.88;5069766;28;20131;-61
2021/09/22 10:40:54;;;;;;;4.00;3.70;;;;;;;17.32;66.74;96646.41;5081564;28;20045;-62
2021/09/22 10:43:25;;;;;;;3.53;3.25;;;;;;;17.36;67.59;96649.56;5078448;28;20028;-61
2021/09/22 10:46:12;;;;;;;3.83;3.58;;;;;;;17.38;67.47;96640.44;5084247;28;20028;-61
2021/09/22 10:48:40;;;;;;;3.78;3.50;;;;;;;17.46;66.02;96635.13;5083062;28;20028;-61
2021/09/22 10:51:09;;;;;;;3.85;3.58;;;;;;;17.54;65.58;96625.50;5083697;28;20603;-61
2021/09/22 10:53:41;;;;;;;3.92;3.60;;;;;;;17.67;65.25;96628.53;5081070;28;20028;-62
2021/09/22 10:56:15;;;;;;;7.50;3.50;;;;;;;17.95;64.07;96627.41;5080046;28;20032;-61
2021/09/22 10:58:46;;;;;;;3.90;3.47;;;;;;;17.93;64.51;96629.41;5076664;28;20115;-61
2021/09/22 11:01:31;;;;;;;3.80;3.60;;;;;;;18.20;64.97;96622.94;5082459;28;20079;-62
2021/09/22 11:04:08;;;;;;;4.45;3.83;;;;;;;18.84;63.32;96626.66;5084074;28;20145;-62
2021/09/22 11:06:42;;;;;;;7.15;3.72;;;;;;;18.93;60.67;96620.28;5081393;28;20440;-61
2021/09/22 11:09:10;;;;;;;5.63;3.60;;;;;;;19.26;60.87;96622.03;5082010;28;20490;-62
2021/09/22 11:11:56;;;;;;;3.40;3.10;;;;;;;19.71;59.86;96617.78;5080874;28;20099;-62
2021/09/22 11:14:37;;;;;;;3.40;3.10;;;;;;;19.86;58.22;96612.50;5072263;28;20035;-61
2021/09/22 11:17:15;;;;;;;7.10;3.35;;;;;;;19.86;58.22;96615.16;5078309;28;20102;-62
2021/09/22 11:19:43;;;;;;;3.03;2.83;;;;;;;19.95;57.13;96607.94;5083251;28;20024;-62
2021/09/22 11:22:18;;;;;;;6.40;3.22;;;;;;;19.70;57.75;96604.63;5073761;28;20040;-62
2021/09/22 11:24:44;;;;;;;3.60;3.40;;;;;;;19.68;58.09;96599.44;5079155;28;20561;-62
2021/09/22 11:27:12;;;;;;;3.67;3.42;;;;;;;19.78;57.62;96598.34;5087129;28;20082;-63
2021/09/22 11:29:43;;;;;;;3.75;3.22;;;;;;;19.65;57.31;96591.78;5079265;28;20020;-63
2021/09/22 11:32:28;;;;;;;3.97;3.58;;;;;;;19.56;57.99;96592.81;5079347;28;20032;-63
2021/09/22 11:34:57;;;;;;;4.25;3.10;;;;;;;19.65;56.96;96590.94;5073173;28;20517;-64
2021/09/22 11:37:38;;;;;;;5.35;3.30;;;;;;;19.63;58.37;96592.94;5064210;28;20115;-64
2021/09/22 11:40:24;;;;;;;3.35;3.08;;;;;;;19.40;56.76;96591.94;5053608;28;20503;-65
2021/09/22 11:43:12;;;;;;;3.65;3.40;;;;;;;19.75;57.44;96597.72;5067369;28;20025;-64
2021/09/22 11:45:38;;;;;;;4.95;3.58;;;;;;;19.15;58.82;96585.88;5065226;28;20021;-64
2021/09/22 11:48:08;;;;;;;3.63;3.42;;;;;;;18.97;59.54;96586.09;5061444;28;20105;-64
2021/09/22 11:50:37;;;;;;;4.28;3.25;;;;;;;18.89;59.53;96585.13;5062854;28;20029;-64
2021/09/22 11:53:07;;;;;;;3.58;3.22;;;;;;;19.13;58.37;96598.56;5066307;28;20025;-64
2021/09/22 11:55:32;;;;;;;3.50;3.30;;;;;;;19.41;58.73;96588.25;5065745;28;20441;-64
2021/09/22 11:58:03;;;;;;;3.65;3.22;;;;;;;19.79;56.88;96590.19;5077387;28;20178;-64
2021/09/22 12:00:29;;;;;;;3.28;3.05;;;;;;;20.32;55.46;96582.25;5060648;28;20021;-64
2021/09/22 12:02:55;;;;;;;3.70;3.40;;;;;;;19.97;56.89;96586.41;5065268;28;20043;-65
2021/09/22 12:05:22;;;;;;;3.75;3.35;;;;;;;20.11;54.81;96576.75;5062715;28;20523;-64
2021/09/22 12:07:55;;;;;;;3.72;3.50;;;;;;;19.61;57.13;96574.47;5064255;28;20041;-64
2021/09/22 12:10:23;;;;;;;3.22;3.03;;;;;;;19.52;56.89;96564.81;5069510;28;20032;-64
2021/09/22 12:12:49;;;;;;;4.10;3.20;;;;;;;20.07;57.09;96559.44;5064334;28;20047;-65
2021/09/22 12:15:14;;;;;;;3.08;2.95;;;;;;;20.57;55.55;96549.09;5059104;28;20032;-64
2021/09/22 12:17:41;;;;;;;3.50;3.05;;;;;;;20.66;55.46;96556.00;5075400;28;20036;-65
2021/09/22 12:20:09;;;;;;;3.67;3.42;;;;;;;20.02;56.71;96554.63;5078779;28;20608;-65
2021/09/22 12:22:37;;;;;;;3.33;3.15;;;;;;;19.51;57.34;96549.81;5075813;28;20032;-64
2021/09/22 12:25:05;;;;;;;4.80;3.55;;;;;;;19.22;59.72;96546.00;5067851;28;20017;-64
2021/09/22 12:27:31;;;;;;;3.58;3.28;;;;;;;19.86;58.69;96542.22;5070750;28;20020;-64
2021/09/22 12:29:59;;;;;;;3.60;3.40;;;;;;;20.25;55.50;96543.06;5067903;28;20037;-64
2021/09/22 12:32:28;;;;;;;3.55;3.05;;;;;;;20.04;56.50;96547.25;5065675;28;20028;-63
2021/09/22 12:34:56;;;;;;;2.97;2.78;;;;;;;20.08;56.88;96545.06;5075448;28;20108;-63
2021/09/22 12:37:24;;;;;;;4.28;3.70;;;;;;;19.89;58.78;96533.81;5077688;28;20012;-63
2021/09/22 12:40:06;;;;;;;7.00;3.88;;;;;;;19.80;59.97;96527.72;5077212;28;20544;-64
2021/09/22 12:42:44;;;;;;;4.13;3.72;;;;;;;20.13;58.61;96518.59;5060906;28;20025;-65
2021/09/22 12:45:30;;;;;;;4.20;3.90;;;;;;;20.19;58.13;96520.53;5072379;28;20040;-64
2021/09/22 12:48:02;;;;;;;3.85;3.50;;;;;;;19.33;60.46;96511.72;5076489;28;20023;-64
2021/09/22 12:50:39;;;;;;;4.38;4.00;;;;;;;19.02;61.39;96512.59;5077290;28;20020;-64
2021/09/22 12:53:14;;;;;;;4.80;4.43;;;;;;;18.92;63.38;96511.09;5086804;28;20052;-64
2021/09/22 12:55:42;;;;;;;4.90;4.50;;;;;;;19.35;62.32;96505.38;5074933;28;20032;-64
2021/09/22 12:58:09;;;;;;;4.55;4.25;;;;;;;19.69;60.01;96514.81;5065694;28;20028;-65
2021/09/22 13:00:54;;;;;;;4.43;4.13;;;;;;;20.08;58.56;96504.97;5068202;28;20024;-64
2021/09/22 13:03:27;;;;;;;4.70;4.30;;;;;;;19.87;59.80;96495.78;5072072;28;20052;-64
2021/09/22 13:06:05;;;;;;;4.72;4.25;;;;;;;19.96;59.32;96497.38;5065849;28;20108;-64
2021/09/22 13:08:31;;;;;;;4.53;4.18;;;;;;;20.14;58.49;96493.53;5072046;28;20024;-64
2021/09/22 13:11:07;;;;;;;4.40;4.10;;;;;;;20.31;58.09;96495.03;5067093;28;20406;-64
2021/09/22 13:13:39;;;;;;;4.65;4.35;;;;;;;20.43;58.37;96491.88;5058039;28;20028;-64
2021/09/22 13:16:23;;;;;;;4.40;4.10;;;;;;;20.40;58.14;96486.91;5061090;28;20025;-65
2021/09/22 13:18:50;;;;;;;4.40;4.00;;;;;;;20.55;57.66;96482.38;5072162;28;20028;-64
2021/09/22 13:21:15;;;;;;;3.97;3.58;;;;;;;20.59;56.88;96483.69;5065320;28;20271;-65
2021/09/22 13:23:43;;;;;;;4.82;4.18;;;;;;;20.83;56.66;96475.56;5061327;28;20075;-65
2021/09/22 13:26:09;;;;;;;4.50;4.10;;;;;;;20.94;56.03;96468.91;5074790;28;20564;-65
2021/09/22 13:28:34;;;;;;;6.07;4.53;;;;;;;20.91;55.87;96462.06;5065491;28;20024;-65
2021/09/22 13:31:00;;;;;;;4.68;4.03;;;;;;;21.01;55.39;96456.41;5067607;28;20443;-65
2021/09/22 13:33:26;;;;;;;4.25;3.92;;;;;;;20.70;55.67;96457.47;5069412;28;20047;-65
2021/09/22 13:35:51;;;;;;;3.95;3.72;;;;;;;20.52;56.33;96458.69;5072006;28;20099;-65
2021/09/22 13:38:17;;;;;;;6.63;4.35;;;;;;;20.72;57.21;96447.41;5069597;28;20483;-65
2021/09/22 13:40:42;;;;;;;3.97;3.78;;;;;;;20.87;56.69;96453.56;5064802;28;20159;-65
2021/09/22 13:43:08;;;;;;;4.60;4.20;;;;;;;21.03;56.85;96454.38;5074947;28;20529;-64
2021/09/22 13:45:33;;;;;;;9.32;4.15;;;;;;;20.91;55.87;96453.22;5066677;28;20103;-65
2021/09/22 13:47:58;;;;;;;4.18;3.85;;;;;;;20.85;55.15;96452.94;5066079;28;20024;-65
2021/09/22 13:50:24;;;;;;;5.22;4.10;;;;;;;20.89;56.52;96445.38;5073894;28;20119;-65
2021/09/22 13:52:50;;;;;;;3.65;3.42;;;;;;;20.97;56.21;96442.56;5065339;28;20041;-65
2021/09/22 13:55:15;;;;;;;4.00;3.70;;;;;;;20.79;56.49;96434.13;5066985;28;20041;-65
2021/09/22 13:57:41;;;;;;;4.55;4.25;;;;;;;20.68;56.39;96433.56;5067526;28;20028;-65
2021/09/22 14:00:07;;;;;;;4.30;3.92;;;;;;;20.75;56.69;96433.66;5068644;28;20770;-65
2021/09/22 14:02:32;;;;;;;4.32;4.05;;;;;;;20.94;55.87;96428.75;5067955;28;20024;-65
2021/09/22 14:04:58;;;;;;;4.82;4.43;;;;;;;20.95;55.34;96430.41;5063389;28;20509;-65
2021/09/22 14:07:23;;;;;;;4.75;4.20;;;;;;;20.74;56.37;96422.13;5062560;28;20482;-65
2021/09/22 14:09:49;;;;;;;4.60;4.30;;;;;;;20.25;58.17;96428.09;5068033;28;20104;-65
2021/09/22 14:12:15;;;;;;;4.50;4.10;;;;;;;20.28;58.48;96428.56;5070264;28;20025;-65
2021/09/22 14:14:40;;;;;;;5.93;4.40;;;;;;;20.27;58.16;96426.91;5072768;28;20479;-65
2021/09/22 14:17:05;;;;;;;5.03;4.07;;;;;;;20.25;57.94;96428.94;5070161;28;20028;-64
2021/09/22 14:19:31;;;;;;;5.43;4.78;;;;;;;20.22;57.51;96429.28;5071053;28;20483;-65
2021/09/22 14:21:56;;;;;;;5.32;4.93;;;;;;;20.08;58.85;96425.59;5069014;28;20028;-65
2021/09/22 14:24:22;;;;;;;6.05;4.45;;;;;;;19.65;59.90;96423.50;5059182;28;20044;-64
2021/09/22 14:26:47;;;;;;;4.95;4.60;;;;;;;19.89;59.71;96429.63;5064400;28;20479;-64
2021/09/22 14:29:12;;;;;;;8.57;4.28;;;;;;;19.81;58.39;96424.38;5060426;28;20024;-64
2021/09/22 14:31:39;;;;;;;6.80;4.90;;;;;;;19.79;59.01;96429.06;5063634;28;20035;-64
2021/09/22 14:34:04;;;;;;;5.10;4.80;;;;;;;19.93;58.95;96419.44;5064083;28;20151;-65
2021/09/22 14:36:30;;;;;;;4.68;4.38;;;;;;;20.28;58.09;96420.53;5063619;28;20610;-64
2021/09/22 14:38:55;;;;;;;5.28;4.88;;;;;;;19.83;59.49;96420.50;5063939;28;20015;-64
2021/09/22 14:41:21;;;;;;;6.93;5.32;;;;;;;19.78;59.30;96424.72;5064896;28;20499;-64
2021/09/22 14:43:46;;;;;;;5.05;4.70;;;;;;;19.53;59.56;96411.59;5062125;28;21201;-64
2021/09/22 14:46:12;;;;;;;6.60;4.75;;;;;;;19.23;61.13;96416.88;5062261;28;20126;-64
2021/09/22 14:48:37;;;;;;;5.55;4.75;;;;;;;19.06;61.94;96408.97;5063505;28;20024;-64
2021/09/22 14:51:03;;;;;;;6.30;4.63;;;;;;;19.10;61.46;96420.13;5060951;28;20491;-64
2021/09/22 14:53:28;;;;;;;5.28;4.88;;;;;;;19.02;61.34;96410.34;5059356;28;20093;-65
2021/09/22 14:55:54;;;;;;;5.00;4.60;;;;;;;19.11;61.60;96413.78;5060196;28;20045;-64
2021/09/22 14:58:20;;;;;;;5.75;4.97;;;;;;;19.18;61.40;96412.91;5057494;28;20020;-64
2021/09/22 15:00:45;;;;;;;5.28;4.97;;;;;;;19.03;61.61;96406.66;5063024;28;20036;-64
2021/09/22 15:03:12;;;;;;;5.55;4.82;;;;;;;18.98;61.65;96412.53;5060738;28;20027;-64
2021/09/22 15:05:38;;;;;;;6.03;4.53;;;;;;;18.84;62.34;96402.59;5058330;28;20028;-64
2021/09/22 15:08:04;;;;;;;5.18;4.88;;;;;;;18.82;62.69;96409.97;5061643;28;20020;-64
2021/09/22 15:10:29;;;;;;;5.20;4.82;;;;;;;18.82;62.78;96404.63;5063076;28;20444;-65
2021/09/22 15:12:55;;;;;;;5.18;4.82;;;;;;;18.96;61.90;96395.03;5063742;28;20049;-64
2021/09/22 15:15:22;;;;;;;66.55;17.05;;;;;;;19.03;61.84;96396.00;5063842;28;20021;-64
2021/09/22 15:17:47;;;;;;;9.75;5.75;;;;;;;18.90;62.17;96389.41;5064427;28;20787;-65
2021/09/22 15:20:14;;;;;;;11.45;6.03;;;;;;;18.97;61.64;96386.81;5067542;28;20025;-64
2021/09/22 15:22:40;;;;;;;5.30;4.80;;;;;;;18.90;62.10;96386.72;5063104;28;20029;-64
2021/09/22 15:25:07;;;;;;;4.95;4.65;;;;;;;19.00;62.02;96380.34;5067703;28;20210;-64
2021/09/22 15:27:33;;;;;;;5.05;4.65;;;;;;;18.85;62.31;96386.41;5066949;28;20452;-65
2021/09/22 15:30:01;;;;;;;5.32;4.93;;;;;;;18.68;62.38;96374.19;5068475;28;20116;-64
2021/09/22 15:32:27;;;;;;;5.07;4.68;;;;;;;18.65;62.72;96374.53;5061503;28;20060;-64
2021/09/22 15:34:53;;;;;;;6.57;4.80;;;;;;;18.54;63.15;96373.09;5069336;28;20066;-64
2021/09/22 15:37:20;;;;;;;5.55;4.85;;;;;;;18.68;63.36;96376.84;5069071;28;20027;-64
2021/09/22 15:39:46;;;;;;;6.03;5.47;;;;;;;18.82;63.04;96373.44;5065846;28;20023;-64
2021/09/22 15:42:14;;;;;;;6.13;5.57;;;;;;;18.75;62.91;96369.81;5066116;28;20029;-64
2021/09/22 15:44:39;;;;;;;4.75;4.45;;;;;;;18.63;63.21;96376.56;5060579;28;20036;-64
2021/09/22 15:47:05;;;;;;;5.60;5.10;;;;;;;18.39;64.03;96381.00;5068450;28;20023;-65
2021/09/22 15:49:30;;;;;;;5.10;4.80;;;;;;;18.20;65.06;96382.28;5068068;28;20100;-64
2021/09/22 15:51:56;;;;;;;6.18;5.68;;;;;;;18.07;65.75;96383.66;5064115;28;20550;-64
2021/09/22 15:54:21;;;;;;;5.57;5.18;;;;;;;18.16;65.52;96379.13;5065697;28;20013;-64
2021/09/22 15:56:48;;;;;;;5.75;5.35;;;;;;;17.95;65.62;96377.00;5065105;28;20409;-64
2021/09/22 15:59:14;;;;;;;5.70;5.28;;;;;;;17.78;66.57;96385.03;5065944;28;20059;-64
2021/09/22 16:01:39;;;;;;;5.40;5.00;;;;;;;17.53;67.32;96373.59;5066718;28;20020;-64
2021/09/22 16:04:04;;;;;;;5.95;5.45;;;;;;;17.45;67.46;96383.28;5067777;28;20475;-64
2021/09/22 16:06:30;;;;;;;5.57;5.18;;;;;;;17.40;68.04;96377.63;5067064;28;20039;-64
2021/09/22 16:08:55;;;;;;;5.30;4.90;;;;;;;17.37;68.56;96377.13;5066268;28;20032;-64
2021/09/22 16:11:21;;;;;;;4.97;4.57;;;;;;;17.29;69.86;96380.63;5068410;28;20056;-64
2021/09/22 16:13:47;;;;;;;7.00;5.05;;;;;;;17.19;71.17;96378.13;5067555;28;20040;-64
2021/09/22 16:16:16;;;;;;;4.97;4.47;;;;;;;17.10;72.20;96371.16;5063550;28;20027;-64
2021/09/22 16:18:41;;;;;;;5.00;4.70;;;;;;;17.00;72.55;96379.28;5066453;28;20051;-63
2021/09/22 16:21:07;;;;;;;5.10;4.70;;;;;;;16.86;74.05;96376.25;5067003;28;20036;-64
2021/09/22 16:23:33;;;;;;;5.43;4.75;;;;;;;16.71;74.91;96376.06;5065376;28;20522;-64
2021/09/22 16:26:00;;;;;;;5.15;4.80;;;;;;;16.63;75.13;96380.53;5066824;28;20028;-64
2021/09/22 16:28:25;;;;;;;6.20;5.05;;;;;;;16.50;76.13;96381.84;5067724;28;20013;-63
2021/09/22 16:30:51;;;;;;;5.38;4.88;;;;;;;16.33;76.54;96373.84;5063210;28;20406;-64
2021/09/22 16:33:17;;;;;;;5.03;4.53;;;;;;;16.21;77.33;96377.75;5066621;28;20032;-64
2021/09/22 16:35:42;;;;;;;6.40;5.80;;;;;;;16.10;78.19;96378.06;5064332;28;20024;-64
2021/09/22 16:38:07;;;;;;;5.93;5.28;;;;;;;15.94;78.97;96381.50;5067476;28;20032;-66
2021/09/22 16:40:33;;;;;;;4.75;4.45;;;;;;;15.85;79.60;96378.75;5060453;28;20048;-65
2021/09/22 16:42:58;;;;;;;5.88;5.38;;;;;;;15.81;79.75;96372.09;5065082;28;20115;-64
2021/09/22 16:45:24;;;;;;;6.00;5.13;;;;;;;15.76;79.91;96374.41;5067735;28;20059;-66
2021/09/22 16:47:49;;;;;;;14.68;6.55;;;;;;;15.71;80.59;96377.50;5074206;28;20107;-65
2021/09/22 16:50:18;;;;;;;5.78;5.03;;;;;;;15.57;80.90;96370.13;5070052;28;20059;-64
2021/09/22 16:52:45;;;;;;;5.82;5.00;;;;;;;15.52;80.71;96375.06;5064697;28;20404;-66
2021/09/22 16:55:13;;;;;;;5.32;4.93;;;;;;;15.42;82.05;96364.56;5070718;28;20024;-68
2021/09/22 16:57:38;;;;;;;5.50;5.10;;;;;;;15.30;82.30;96366.63;5071166;28;20027;-67
2021/09/22 17:00:05;;;;;;;5.45;4.57;;;;;;;15.25;82.05;96369.78;5065818;28;20029;-70
2021/09/22 17:02:30;;;;;;;6.40;4.80;;;;;;;15.19;82.52;96365.06;5071042;28;20099;-68
2021/09/22 17:04:55;;;;;;;5.72;5.22;;;;;;;15.12;82.69;96367.50;5065495;28;20188;-69
2021/09/22 17:07:21;;;;;;;6.00;5.55;;;;;;;15.12;82.70;96374.63;5068273;28;20052;-68
2021/09/22 17:09:46;;;;;;;6.07;5.20;;;;;;;15.07;83.71;96371.63;5060055;28;20498;-69
2021/09/22 17:12:11;;;;;;;5.70;5.30;;;;;;;15.01;84.22;96367.75;5071276;28;20066;-67
2021/09/22 17:14:37;;;;;;;6.65;5.00;;;;;;;14.94;84.07;96375.47;5067323;28;20433;-73
2021/09/22 17:17:02;;;;;;;5.32;4.93;;;;;;;14.89;84.59;96375.09;5067148;28;20021;-66
2021/09/22 17:19:28;;;;;;;8.75;5.50;;;;;;;14.83;84.54;96375.72;5068097;28;20633;-68
2021/09/22 17:21:53;;;;;;;5.25;4.82;;;;;;;14.81;84.53;96369.72;5068610;28;20028;-67
2021/09/22 17:24:19;;;;;;;5.93;5.40;;;;;;;14.76;84.55;96383.44;5067961;28;20045;-66
2021/09/22 17:26:45;;;;;;;5.75;5.32;;;;;;;14.70;85.04;96378.69;5060664;28;20124;-67
2021/09/22 17:29:11;;;;;;;5.95;5.45;;;;;;;14.60;85.41;96381.44;5061705;28;20104;-66
2021/09/22 17:31:36;;;;;;;6.30;5.70;;;;;;;14.56;85.49;96385.34;5072094;28;20120;-67
2021/09/22 17:34:02;;;;;;;6.95;6.30;;;;;;;14.48;85.98;96375.53;5068242;28;20067;-66
2021/09/22 17:36:27;;;;;;;6.90;6.40;;;;;;;14.45;86.05;96383.75;5068896;28;20031;-66
2021/09/22 17:38:52;;;;;;;8.05;7.28;;;;;;;14.42;86.82;96389.34;5066155;28;20493;-66
2021/09/22 17:41:24;;;;;;;8.07;6.85;;;;;;;14.32;87.12;96387.59;5064629;28;20025;-69
2021/09/22 17:43:54;;;;;;;7.25;6.65;;;;;;;14.27;87.16;96395.16;5068927;28;20530;-66
2021/09/22 17:46:26;;;;;;;6.80;6.30;;;;;;;14.20;87.33;96382.66;5065777;28;20047;-65
2021/09/22 17:48:56;;;;;;;7.05;5.60;;;;;;;14.08;87.90;96380.19;5068374;28;20039;-68
2021/09/22 17:51:23;;;;;;;6.53;5.80;;;;;;;14.06;88.16;96382.16;5067303;28;20111;-64
2021/09/22 17:53:49;;;;;;;6.68;6.15;;;;;;;14.04;88.54;96378.81;5070688;28;20095;-64
2021/09/22 17:56:15;;;;;;;10.73;7.05;;;;;;;14.01;88.18;96393.19;5065868;28;20025;-67
2021/09/22 17:58:40;;;;;;;7.63;6.03;;;;;;;13.95;88.51;96391.13;5070256;28;20372;-69
2021/09/22 18:01:05;;;;;;;6.20;5.68;;;;;;;13.91;88.54;96400.34;5066246;28;20037;-71
2021/09/22 18:03:31;;;;;;;6.95;5.90;;;;;;;13.81;89.32;96389.78;5064672;28;20032;-67
2021/09/22 18:05:58;;;;;;;6.43;5.93;;;;;;;13.79;89.41;96402.34;5064064;28;20064;-69
2021/09/22 18:08:24;;;;;;;9.52;8.77;;;;;;;13.72;89.38;96398.59;5064459;28;20078;-67
2021/09/22 18:10:50;;;;;;;13.52;12.32;;;;;;;13.67;90.29;96401.69;5065397;28;20060;-68
2021/09/22 18:13:16;;;;;;;57.65;51.40;;;;;;;13.66;89.87;96407.94;5065516;28;20036;-65
2021/09/22 18:15:43;;;;;;;66.40;53.10;;;;;;;13.64;89.78;96406.41;5065620;28;20039;-66
2021/09/22 18:18:09;;;;;;;55.60;49.63;;;;;;;13.57;89.81;96404.34;5063154;28;20078;-64
2021/09/22 18:20:35;;;;;;;9.93;9.02;;;;;;;13.53;89.88;96402.13;5060038;28;20400;-65
2021/09/22 18:23:00;;;;;;;8.38;7.28;;;;;;;13.54;89.52;96409.94;5059183;28;20119;-66
2021/09/22 18:25:25;;;;;;;7.38;6.85;;;;;;;13.50;89.75;96408.56;5062153;28;20033;-69
2021/09/22 18:27:51;;;;;;;8.38;7.75;;;;;;;13.44;89.57;96407.31;5066114;28;20107;-72
2021/09/22 18:30:16;;;;;;;9.73;8.02;;;;;;;13.41;89.91;96412.00;5072331;28;20078;-68
2021/09/22 18:32:42;;;;;;;9.60;8.70;;;;;;;13.39;89.88;96417.44;5067951;28;20560;-68
2021/09/22 18:35:07;;;;;;;12.85;8.60;;;;;;;13.30;90.72;96413.00;5073839;28;20033;-65
2021/09/22 18:37:33;;;;;;;8.80;8.00;;;;;;;13.25;90.85;96420.53;5064875;28;20029;-67
2021/09/22 18:39:58;;;;;;;8.18;7.50;;;;;;;13.24;91.50;96418.84;5068462;28;20073;-65
2021/09/22 18:42:24;;;;;;;7.93;7.32;;;;;;;13.17;91.17;96419.44;5075008;28;20017;-63
2021/09/22 18:44:50;;;;;;;8.02;7.20;;;;;;;13.13;90.67;96423.31;5066869;28;20547;-67
2021/09/22 18:47:17;;;;;;;8.48;7.65;;;;;;;13.13;90.54;96419.84;5075394;28;20560;-67
2021/09/22 18:49:43;;;;;;;9.73;8.93;;;;;;;13.09;90.75;96426.38;5065815;28;20035;-63
2021/09/22 18:52:10;;;;;;;10.43;9.43;;;;;;;13.03;90.72;96425.94;5072459;28;20100;-63
2021/09/22 18:54:36;;;;;;;9.68;8.98;;;;;;;12.98;90.75;96430.00;5067704;28;20025;-63
2021/09/22 18:57:04;;;;;;;10.13;9.13;;;;;;;12.96;91.02;96427.47;5067665;28;20082;-63
2021/09/22 18:59:30;;;;;;;9.13;7.90;;;;;;;12.93;90.95;96432.19;5064273;28;20021;-64
2021/09/22 19:01:55;;;;;;;8.93;8.02;;;;;;;12.86;91.33;96437.22;5068386;28;20058;-67
2021/09/22 19:04:21;;;;;;;8.68;7.72;;;;;;;12.87;91.04;96434.44;5068041;28;20119;-67
2021/09/22 19:06:47;;;;;;;8.98;7.40;;;;;;;12.79;91.28;96444.88;5074569;28;20035;-66
2021/09/22 19:09:13;;;;;;;8.43;7.63;;;;;;;12.74;90.87;96439.97;5066384;28;20055;-67
2021/09/22 19:11:39;;;;;;;7.65;7.07;;;;;;;12.74;90.74;96444.44;5073217;28;20487;-66
2021/09/22 19:14:04;;;;;;;8.13;7.43;;;;;;;12.70;91.56;96437.75;5072956;28;20217;-67
2021/09/22 19:16:30;;;;;;;8.10;7.50;;;;;;;12.67;91.10;96435.38;5064516;28;20143;-67
2021/09/22 19:18:56;;;;;;;7.43;6.75;;;;;;;12.64;91.29;96441.78;5061575;28;20033;-66
2021/09/22 19:21:22;;;;;;;8.02;7.32;;;;;;;12.61;90.73;96440.25;5068320;28;20448;-67
2021/09/22 19:23:47;;;;;;;7.80;7.10;;;;;;;12.58;91.06;96448.44;5063820;28;20090;-67
2021/09/22 19:26:15;;;;;;;10.73;9.70;;;;;;;12.52;91.80;96446.34;5067210;28;20021;-67
2021/09/22 19:28:41;;;;;;;8.50;7.70;;;;;;;12.51;91.97;96438.56;5071044;28;20025;-66
2021/09/22 19:31:07;;;;;;;8.93;8.13;;;;;;;12.46;92.55;96445.09;5069165;28;20427;-67
2021/09/22 19:33:35;;;;;;;8.27;7.57;;;;;;;12.41;92.22;96443.81;5068869;28;20106;-66
2021/09/22 19:36:02;;;;;;;8.23;7.00;;;;;;;12.36;92.26;96440.75;5068501;28;20028;-66
2021/09/22 19:38:28;;;;;;;8.63;7.75;;;;;;;12.36;92.55;96446.03;5068396;28;20028;-66
2021/09/22 19:40:54;;;;;;;7.82;7.13;;;;;;;12.30;92.46;96444.75;5067349;28;20032;-66
2021/09/22 19:43:19;;;;;;;7.82;7.07;;;;;;;12.29;92.31;96449.22;5069723;28;20039;-66
2021/09/22 19:45:44;;;;;;;8.27;7.55;;;;;;;12.26;92.68;96449.44;5063120;28;21497;-67
2021/09/22 19:48:10;;;;;;;12.98;7.05;;;;;;;12.27;92.19;96442.38;5068287;28;20023;-66
2021/09/22 19:50:36;;;;;;;9.50;7.45;;;;;;;12.23;92.73;96447.09;5066716;28;20175;-67
2021/09/22 19:53:01;;;;;;;8.15;7.45;;;;;;;12.24;91.99;96437.38;5056220;28;20496;-67
2021/09/22 19:55:26;;;;;;;7.60;7.00;;;;;;;12.23;92.04;96446.25;5063710;28;20031;-67
2021/09/22 19:57:52;;;;;;;7.18;6.57;;;;;;;12.21;91.51;96448.22;5068848;28;20391;-66
2021/09/22 20:00:17;;;;;;;8.13;7.43;;;;;;;12.21;92.19;96448.22;5064291;28;21807;-65
2021/09/22 20:02:43;;;;;;;8.38;7.57;;;;;;;12.17;91.77;96447.63;5064741;28;20021;-66
2021/09/22 20:05:13;;;;;;;13.20;11.02;;;;;;;12.12;91.52;96449.84;5068134;28;20032;-66
2021/09/22 20:07:40;;;;;;;13.48;11.27;;;;;;;12.08;92.42;96445.81;5064474;28;20032;-66
2021/09/22 20:10:08;;;;;;;10.60;8.52;;;;;;;12.07;92.52;96454.69;5067386;28;20053;-67
2021/09/22 20:12:33;;;;;;;12.23;9.10;;;;;;;12.01;93.42;96456.88;5066722;28;20020;-67
2021/09/22 20:14:59;;;;;;;11.70;10.32;;;;;;;11.97;93.14;96463.34;5064775;28;20035;-67
2021/09/22 20:17:25;;;;;;;10.70;9.75;;;;;;;11.96;94.42;96459.03;5063584;28;20021;-67
2021/09/22 20:19:50;;;;;;;9.88;8.98;;;;;;;11.94;94.16;96457.50;5063919;28;20063;-67
2021/09/22 20:22:16;;;;;;;9.25;8.52;;;;;;;11.93;93.99;96458.47;5066700;28;20463;-67
2021/09/22 20:24:41;;;;;;;8.75;8.10;;;;;;;11.92;93.90;96454.16;5067090;28;20107;-67
2021/09/22 20:27:07;;;;;;;10.20;8.85;;;;;;;11.82;94.39;96451.47;5063933;28;20028;-66
2021/09/22 20:29:33;;;;;;;9.98;8.95;;;;;;;11.79;94.46;96455.22;5065328;28;20112;-66
2021/09/22 20:32:00;;;;;;;8.95;8.25;;;;;;;11.82;94.11;96454.94;5066241;28;20070;-66
2021/09/22 20:34:26;;;;;;;8.88;8.15;;;;;;;11.80;94.63;96456.03;5065892;28;20025;-65
2021/09/22 20:36:52;;;;;;;9.73;8.93;;;;;;;11.78;94.71;96458.81;5058223;28;20088;-66
2021/09/22 20:39:17;;;;;;;15.55;8.32;;;;;;;11.78;94.41;96468.53;5061624;28;20446;-65
2021/09/22 20:41:43;;;;;;;9.75;7.78;;;;;;;11.74;95.00;96471.41;5063508;28;20041;-67
2021/09/22 20:44:08;;;;;;;8.90;8.10;;;;;;;11.75;94.64;96456.44;5060912;28;20148;-67
2021/09/22 20:46:34;;;;;;;8.85;8.13;;;;;;;11.74;94.44;96455.59;5064079;28;20051;-67
2021/09/22 20:49:00;;;;;;;9.85;8.32;;;;;;;11.74;93.93;96463.50;5063538;28;20038;-67
2021/09/22 20:51:28;;;;;;;9.13;8.32;;;;;;;11.68;94.85;96464.03;5066293;28;20028;-67
2021/09/22 20:53:54;;;;;;;10.02;8.38;;;;;;;11.66;94.34;96459.84;5064228;28;20398;-67
2021/09/22 20:56:20;;;;;;;9.15;8.27;;;;;;;11.59;95.28;96467.44;5063646;28;20021;-66
2021/09/22 20:58:45;;;;;;;8.68;8.00;;;;;;;11.61;95.17;96462.91;5067442;28;20537;-66
2021/09/22 21:01:11;;;;;;;8.43;7.75;;;;;;;11.59;95.41;96464.78;5065625;28;20025;-66
2021/09/22 21:03:36;;;;;;;8.57;7.78;;;;;;;11.60;95.44;96463.84;5065998;28;20059;-66
2021/09/22 21:06:02;;;;;;;8.07;7.45;;;;;;;11.60;95.23;96463.84;5067340;28;20398;-67
2021/09/22 21:08:28;;;;;;;9.25;8.45;;;;;;;11.58;95.15;96474.53;5064616;28;20024;-68
2021/09/22 21:10:53;;;;;;;8.95;8.13;;;;;;;11.59;94.84;96472.72;5066466;28;20021;-67
2021/09/22 21:13:19;;;;;;;8.30;7.57;;;;;;;11.59;94.68;96470.06;5065194;28;20406;-66
2021/09/22 21:15:47;;;;;;;8.15;7.43;;;;;;;11.56;94.88;96467.69;5063115;28;20029;-66
2021/09/22 21:18:13;;;;;;;7.93;7.28;;;;;;;11.55;95.27;96473.94;5062506;28;20090;-66
2021/09/22 21:20:39;;;;;;;8.02;7.32;;;;;;;11.52;95.41;96475.06;5061012;28;20025;-66
2021/09/22 21:23:04;;;;;;;8.43;7.75;;;;;;;11.51;95.50;96469.88;5056880;28;20051;-66
2021/09/22 21:25:30;;;;;;;8.75;7.95;;;;;;;11.50;95.00;96476.13;5054422;28;20017;-67
2021/09/22 21:27:56;;;;;;;7.82;7.20;;;;;;;11.44;95.49;96478.31;5059680;28;20083;-66
2021/09/22 21:30:21;;;;;;;8.48;7.72;;;;;;;11.42;96.43;96474.13;5056957;28;20474;-66
2021/09/22 21:32:47;;;;;;;7.40;6.90;;;;;;;11.43;95.37;96473.16;5055932;28;20528;-66
2021/09/22 21:35:13;;;;;;;8.82;8.02;;;;;;;11.38;96.28;96478.81;5055304;28;20509;-66
2021/09/22 21:37:38;;;;;;;7.43;6.72;;;;;;;11.38;95.92;96478.81;5055527;28;20029;-66
2021/09/22 21:40:06;;;;;;;8.85;8.07;;;;;;;11.38;95.82;96478.00;5054951;28;20016;-67
2021/09/22 21:42:32;;;;;;;8.52;7.82;;;;;;;11.36;95.85;96479.91;5059015;28;20487;-66
2021/09/22 21:44:57;;;;;;;8.07;7.40;;;;;;;11.36;95.87;96480.75;5059490;28;20032;-66
2021/09/22 21:47:23;;;;;;;9.70;7.70;;;;;;;11.37;95.56;96477.13;5054036;28;20066;-67
2021/09/22 21:49:48;;;;;;;8.60;7.90;;;;;;;11.32;96.26;96477.53;5056592;28;20017;-67
2021/09/22 21:52:13;;;;;;;10.40;7.85;;;;;;;11.32;96.22;96471.41;5057929;28;20476;-66
2021/09/22 21:54:39;;;;;;;10.77;7.50;;;;;;;11.30;96.04;96468.06;5060587;28;20021;-67
2021/09/22 21:57:04;;;;;;;7.55;7.03;;;;;;;11.27;96.32;96468.34;5056856;28;20021;-66